Rainbow, Texas
Current Conditions -  °F | °C
As of 9:35 AM on Thursday 30 Oct 2014 (Local Time) from KGDJ Reporting Station
Broken Clouds Broken Clouds  
Wind Chill: 62°   Ceiling: 5000
Heat Index: 62°   Visibility: 10mi
Dew Point: 51°   Wind: 5mph
Humidity: 67%   Direction: 130°SE
Pressure: 30.18"   Gusts: NA
Location:  32.27°N, 97.7°W
Report Text: KGDJ 301435Z AUTO 13004KT 10SM BKN050 BKN070 17/11 A3018 RMK AO2 T01670105
Loading
Personal Weather Stations






























Interactive Weather Map New forecast layout! Learn more

10-Day Weather Forecast

Advertisements
Track Severe Weather on mobile